sensor_id;sensor_type;location;lat;lon;timestamp;P1;durP1;ratioP1;P2;durP2;ratioP2
40635;SDS011;26642;55.766;37.828;2024-02-21T00:01:47;8.63;;;7.20;;
40635;SDS011;26642;55.766;37.828;2024-02-21T00:04:13;9.10;;;7.55;;
40635;SDS011;26642;55.766;37.828;2024-02-21T00:06:39;8.52;;;7.10;;
40635;SDS011;26642;55.766;37.828;2024-02-21T00:09:05;8.80;;;6.95;;
40635;SDS011;26642;55.766;37.828;2024-02-21T00:11:31;9.15;;;7.72;;
40635;SDS011;26642;55.766;37.828;2024-02-21T00:13:57;7.90;;;7.10;;
40635;SDS011;26642;55.766;37.828;2024-02-21T00:16:23;7.70;;;6.80;;
40635;SDS011;26642;55.766;37.828;2024-02-21T00:18:49;10.10;;;7.75;;
40635;SDS011;26642;55.766;37.828;2024-02-21T00:21:15;8.02;;;6.70;;
40635;SDS011;26642;55.766;37.828;2024-02-21T00:23:44;8.05;;;6.80;;
40635;SDS011;26642;55.766;37.828;2024-02-21T00:26:14;8.73;;;6.90;;
40635;SDS011;26642;55.766;37.828;2024-02-21T00:28:40;8.13;;;6.85;;
40635;SDS011;26642;55.766;37.828;2024-02-21T00:31:06;9.35;;;7.43;;
40635;SDS011;26642;55.766;37.828;2024-02-21T00:33:32;9.18;;;6.70;;
40635;SDS011;26642;55.766;37.828;2024-02-21T00:35:58;9.05;;;7.30;;
40635;SDS011;26642;55.766;37.828;2024-02-21T00:38:24;8.07;;;6.35;;
40635;SDS011;26642;55.766;37.828;2024-02-21T00:40:50;8.50;;;7.38;;
40635;SDS011;26642;55.766;37.828;2024-02-21T00:43:16;8.57;;;7.47;;
40635;SDS011;26642;55.766;37.828;2024-02-21T00:45:42;8.02;;;6.75;;
40635;SDS011;26642;55.766;37.828;2024-02-21T00:48:08;8.00;;;6.78;;
40635;SDS011;26642;55.766;37.828;2024-02-21T00:50:34;9.90;;;7.22;;
40635;SDS011;26642;55.766;37.828;2024-02-21T00:53:00;10.10;;;7.38;;
40635;SDS011;26642;55.766;37.828;2024-02-21T00:55:26;10.77;;;6.60;;
40635;SDS011;26642;55.766;37.828;2024-02-21T00:57:52;9.27;;;7.05;;
40635;SDS011;26642;55.766;37.828;2024-02-21T01:00:18;7.43;;;6.55;;
40635;SDS011;26642;55.766;37.828;2024-02-21T01:02:44;8.18;;;6.85;;
40635;SDS011;26642;55.766;37.828;2024-02-21T01:05:10;8.80;;;7.60;;
40635;SDS011;26642;55.766;37.828;2024-02-21T01:07:36;9.68;;;6.93;;
40635;SDS011;26642;55.766;37.828;2024-02-21T01:10:03;8.00;;;6.60;;
40635;SDS011;26642;55.766;37.828;2024-02-21T01:12:29;8.68;;;7.05;;
40635;SDS011;26642;55.766;37.828;2024-02-21T01:14:55;8.25;;;6.45;;
40635;SDS011;26642;55.766;37.828;2024-02-21T01:17:21;8.05;;;6.47;;
40635;SDS011;26642;55.766;37.828;2024-02-21T01:19:47;7.05;;;5.80;;
40635;SDS011;26642;55.766;37.828;2024-02-21T01:22:13;8.07;;;6.40;;
40635;SDS011;26642;55.766;37.828;2024-02-21T01:24:40;7.82;;;5.85;;
40635;SDS011;26642;55.766;37.828;2024-02-21T01:27:06;8.45;;;6.20;;
40635;SDS011;26642;55.766;37.828;2024-02-21T01:29:32;7.50;;;6.25;;
40635;SDS011;26642;55.766;37.828;2024-02-21T01:31:58;7.47;;;5.75;;
40635;SDS011;26642;55.766;37.828;2024-02-21T01:34:24;7.63;;;6.25;;
40635;SDS011;26642;55.766;37.828;2024-02-21T01:36:50;7.57;;;6.07;;
40635;SDS011;26642;55.766;37.828;2024-02-21T01:39:16;8.55;;;6.38;;
40635;SDS011;26642;55.766;37.828;2024-02-21T01:41:42;7.72;;;5.88;;
40635;SDS011;26642;55.766;37.828;2024-02-21T01:44:08;7.15;;;6.03;;
40635;SDS011;26642;55.766;37.828;2024-02-21T01:46:34;8.10;;;5.90;;
40635;SDS011;26642;55.766;37.828;2024-02-21T01:49:00;7.22;;;6.25;;
40635;SDS011;26642;55.766;37.828;2024-02-21T01:51:26;6.68;;;5.88;;
40635;SDS011;26642;55.766;37.828;2024-02-21T01:53:53;7.07;;;6.13;;
40635;SDS011;26642;55.766;37.828;2024-02-21T01:56:22;7.03;;;5.90;;
40635;SDS011;26642;55.766;37.828;2024-02-21T01:58:48;6.18;;;5.57;;
40635;SDS011;26642;55.766;37.828;2024-02-21T02:01:16;6.32;;;5.43;;
40635;SDS011;26642;55.766;37.828;2024-02-21T02:03:42;7.65;;;5.68;;
40635;SDS011;26642;55.766;37.828;2024-02-21T02:06:10;9.25;;;6.28;;
40635;SDS011;26642;55.766;37.828;2024-02-21T02:08:36;7.85;;;6.07;;
40635;SDS011;26642;55.766;37.828;2024-02-21T02:11:03;8.43;;;5.60;;
40635;SDS011;26642;55.766;37.828;2024-02-21T02:13:29;7.90;;;5.70;;
40635;SDS011;26642;55.766;37.828;2024-02-21T02:15:55;6.68;;;5.40;;
40635;SDS011;26642;55.766;37.828;2024-02-21T02:18:21;7.60;;;5.50;;
40635;SDS011;26642;55.766;37.828;2024-02-21T02:20:47;6.97;;;6.03;;
40635;SDS011;26642;55.766;37.828;2024-02-21T02:23:32;8.52;;;6.22;;
40635;SDS011;26642;55.766;37.828;2024-02-21T02:25:58;7.30;;;6.18;;
40635;SDS011;26642;55.766;37.828;2024-02-21T02:28:26;6.32;;;5.57;;
40635;SDS011;26642;55.766;37.828;2024-02-21T02:30:52;6.95;;;5.30;;
40635;SDS011;26642;55.766;37.828;2024-02-21T02:33:18;6.05;;;5.45;;
40635;SDS011;26642;55.766;37.828;2024-02-21T02:35:44;6.18;;;5.35;;
40635;SDS011;26642;55.766;37.828;2024-02-21T02:38:11;8.50;;;6.07;;
40635;SDS011;26642;55.766;37.828;2024-02-21T02:40:38;6.43;;;5.43;;
40635;SDS011;26642;55.766;37.828;2024-02-21T02:43:06;6.72;;;5.78;;
40635;SDS011;26642;55.766;37.828;2024-02-21T02:45:32;7.22;;;5.78;;
40635;SDS011;26642;55.766;37.828;2024-02-21T02:47:58;6.13;;;5.13;;
40635;SDS011;26642;55.766;37.828;2024-02-21T02:50:25;6.60;;;5.82;;
40635;SDS011;26642;55.766;37.828;2024-02-21T02:52:55;6.25;;;5.35;;
40635;SDS011;26642;55.766;37.828;2024-02-21T02:55:21;6.85;;;5.05;;
40635;SDS011;26642;55.766;37.828;2024-02-21T02:57:47;7.80;;;5.45;;
40635;SDS011;26642;55.766;37.828;2024-02-21T03:00:13;5.95;;;4.88;;
40635;SDS011;26642;55.766;37.828;2024-02-21T03:02:41;7.70;;;5.78;;
40635;SDS011;26642;55.766;37.828;2024-02-21T03:05:12;7.70;;;5.43;;
40635;SDS011;26642;55.766;37.828;2024-02-21T03:07:42;6.97;;;5.28;;
40635;SDS011;26642;55.766;37.828;2024-02-21T03:10:09;6.82;;;5.55;;
40635;SDS011;26642;55.766;37.828;2024-02-21T03:12:36;7.07;;;4.95;;
40635;SDS011;26642;55.766;37.828;2024-02-21T03:15:03;6.88;;;5.70;;
40635;SDS011;26642;55.766;37.828;2024-02-21T03:17:30;7.05;;;5.20;;
40635;SDS011;26642;55.766;37.828;2024-02-21T03:19:57;8.63;;;5.55;;
40635;SDS011;26642;55.766;37.828;2024-02-21T03:22:25;6.50;;;5.25;;
40635;SDS011;26642;55.766;37.828;2024-02-21T03:24:51;8.60;;;5.63;;
40635;SDS011;26642;55.766;37.828;2024-02-21T03:27:17;5.95;;;5.07;;
40635;SDS011;26642;55.766;37.828;2024-02-21T03:29:43;6.25;;;5.35;;
40635;SDS011;26642;55.766;37.828;2024-02-21T03:32:09;6.88;;;4.80;;
40635;SDS011;26642;55.766;37.828;2024-02-21T03:34:35;5.40;;;4.80;;
40635;SDS011;26642;55.766;37.828;2024-02-21T03:37:01;5.80;;;5.20;;
40635;SDS011;26642;55.766;37.828;2024-02-21T03:39:30;5.88;;;5.28;;
40635;SDS011;26642;55.766;37.828;2024-02-21T03:42:00;8.23;;;5.32;;
40635;SDS011;26642;55.766;37.828;2024-02-21T03:44:30;11.70;;;5.68;;
40635;SDS011;26642;55.766;37.828;2024-02-21T03:46:57;6.22;;;5.05;;
40635;SDS011;26642;55.766;37.828;2024-02-21T03:49:24;7.55;;;5.68;;
40635;SDS011;26642;55.766;37.828;2024-02-21T03:51:50;6.53;;;4.78;;
40635;SDS011;26642;55.766;37.828;2024-02-21T03:54:16;7.53;;;5.32;;
40635;SDS011;26642;55.766;37.828;2024-02-21T03:56:42;7.82;;;5.18;;
40635;SDS011;26642;55.766;37.828;2024-02-21T03:59:08;7.07;;;5.50;;
